Woodstock, CT (06281)

12:24 AM EDT on October 26, 2014 (GMT -0400)
Pomfret School | Change Station
CLOSE
Current Station
Personal Weather Station
Location: Pomfret, CT
Elevation: 577 ft
Nearby Weather Stations

Elev 577 ft 41.89 °N, 71.97 °W | Updated 6 seconds ago

Overcast
Overcast
52.5 °F
Feels Like 52.5 °F
N
0.0
Wind Variable Wind from NW
Gusts 1.0 mph

Today
High -- | Low -- °F
--% Chance of Precip.
Yesterday
High -- | Low -- °F
Precip. -- in
7:13 AM 5:49 PM
Waxing Crescent, 6% visible
Pressure 29.53 in
Visibility 10.0 miles
Clouds Scattered Clouds 8000 ft
Mostly Cloudy 10000 ft
Dew Point 48 °F
Humidity 85%
Rainfall 0.00 in
Snow Depth Not available.
UV 0 out of 12
Pollen 1.60 out of 12
Air Quality Not available.
Flu Activity Not available.
METAR KIJD 260352Z AUTO 35003KT 10SM SCT080 BKN100 10/08 A2953 RMK AO2 SLP998 T01000078

More Conditions Fewer Conditions

Pressure 29.53 in
Visibility 10.0 miles
Clouds Scattered Clouds 8000 ft
Mostly Cloudy 10000 ft
Dew Point 48 °F
Humidity 85%
Rainfall 0.00 in
Snow Depth Not available.
UV 0 out of 12
Pollen 1.60 out of 12
Air Quality Not available.
Flu Activity Not available.
METAR KIJD 260352Z AUTO 35003KT 10SM SCT080 BKN100 10/08 A2953 RMK AO2 SLP998 T01000078

More Conditions Fewer Conditions

10-Day Weather Forecast

Almanac

Astronomy

Oct. 26, 2014 Rise Set
Actual Time 7:13 AM EDT 5:49 PM EDT
Civil Twilight 6:44 AM EDT 6:18 PM EDT
Nautical Twilight 6:11 AM EDT 6:51 PM EDT
Astronomical Twilight 5:39 AM EDT 7:23 PM EDT
Moon 9:50 AM EDT 7:57 PM EDT
Length of Visible Light 11h 34m
Length of Day
10h 36m
Tomorrow will be 2m 35s shorter.
Waxing Crescent, 6% of the Moon is Illuminated
Today
Waxing Crescent
Oct 30
First Quarter
Nov 6
Full
Nov 14
Last Quarter
Nov 22
New

Today's Extremes

State Highs State Lows

Community

WunderPhotos

Upload Photos

1,765,110 photos uploaded!

Nearby

Snow Depth

Station Depth Elevation
No new snow has been reported.

Earthquake Activity

City Distance Mag. Time & Date
No recent earthquake activity has been reported nearby.
Minimum magnitude displayed is 2.5.

Coastal Water Temperatures

Place Temperature
No Stations Reporting

Nearby Weather Stations